sensor_id;sensor_type;location;lat;lon;timestamp;P1;durP1;ratioP1;P2;durP2;ratioP2
49962;SDS011;36180;57.678;11.910;2023-02-01T00:00:31;20.02;;;2.58;;
49962;SDS011;36180;57.678;11.910;2023-02-01T00:03:00;21.00;;;2.50;;
49962;SDS011;36180;57.678;11.910;2023-02-01T00:05:27;17.30;;;2.90;;
49962;SDS011;36180;57.678;11.910;2023-02-01T00:07:54;17.42;;;2.42;;
49962;SDS011;36180;57.678;11.910;2023-02-01T00:10:21;22.48;;;3.58;;
49962;SDS011;36180;57.678;11.910;2023-02-01T00:12:50;20.45;;;2.78;;
49962;SDS011;36180;57.678;11.910;2023-02-01T00:15:17;21.77;;;3.20;;
49962;SDS011;36180;57.678;11.910;2023-02-01T00:17:44;19.45;;;2.63;;
49962;SDS011;36180;57.678;11.910;2023-02-01T00:20:11;21.27;;;3.08;;
49962;SDS011;36180;57.678;11.910;2023-02-01T00:22:38;21.23;;;2.92;;
49962;SDS011;36180;57.678;11.910;2023-02-01T00:25:06;27.70;;;2.95;;
49962;SDS011;36180;57.678;11.910;2023-02-01T00:27:33;16.88;;;2.40;;
49962;SDS011;36180;57.678;11.910;2023-02-01T00:30:02;30.13;;;3.03;;
49962;SDS011;36180;57.678;11.910;2023-02-01T00:32:29;24.45;;;3.00;;
49962;SDS011;36180;57.678;11.910;2023-02-01T00:34:57;18.60;;;2.05;;
49962;SDS011;36180;57.678;11.910;2023-02-01T00:37:24;22.60;;;3.00;;
49962;SDS011;36180;57.678;11.910;2023-02-01T00:39:51;16.83;;;2.50;;
49962;SDS011;36180;57.678;11.910;2023-02-01T00:42:20;20.50;;;2.78;;
49962;SDS011;36180;57.678;11.910;2023-02-01T00:44:47;27.85;;;3.58;;
49962;SDS011;36180;57.678;11.910;2023-02-01T00:47:16;21.73;;;3.13;;
49962;SDS011;36180;57.678;11.910;2023-02-01T00:49:44;22.23;;;3.20;;
49962;SDS011;36180;57.678;11.910;2023-02-01T00:52:11;20.25;;;2.97;;
49962;SDS011;36180;57.678;11.910;2023-02-01T00:54:38;16.70;;;2.65;;
49962;SDS011;36180;57.678;11.910;2023-02-01T00:57:06;17.92;;;3.03;;
49962;SDS011;36180;57.678;11.910;2023-02-01T00:59:33;25.77;;;3.40;;
49962;SDS011;36180;57.678;11.910;2023-02-01T01:02:00;27.38;;;3.25;;
49962;SDS011;36180;57.678;11.910;2023-02-01T01:04:28;23.05;;;3.85;;
49962;SDS011;36180;57.678;11.910;2023-02-01T01:06:55;24.02;;;3.33;;
49962;SDS011;36180;57.678;11.910;2023-02-01T01:09:22;31.80;;;4.15;;
49962;SDS011;36180;57.678;11.910;2023-02-01T01:11:49;18.40;;;3.35;;
49962;SDS011;36180;57.678;11.910;2023-02-01T01:14:18;24.85;;;2.78;;
49962;SDS011;36180;57.678;11.910;2023-02-01T01:16:45;17.55;;;3.35;;
49962;SDS011;36180;57.678;11.910;2023-02-01T01:19:12;19.75;;;3.13;;
49962;SDS011;36180;57.678;11.910;2023-02-01T01:21:40;19.70;;;3.47;;
49962;SDS011;36180;57.678;11.910;2023-02-01T01:24:07;19.77;;;3.42;;
49962;SDS011;36180;57.678;11.910;2023-02-01T01:26:34;23.98;;;3.15;;
49962;SDS011;36180;57.678;11.910;2023-02-01T01:29:01;16.67;;;2.80;;
49962;SDS011;36180;57.678;11.910;2023-02-01T01:31:30;34.05;;;4.03;;
49962;SDS011;36180;57.678;11.910;2023-02-01T01:33:58;21.13;;;3.42;;
49962;SDS011;36180;57.678;11.910;2023-02-01T01:36:26;29.08;;;3.75;;
49962;SDS011;36180;57.678;11.910;2023-02-01T01:38:56;25.92;;;3.20;;
49962;SDS011;36180;57.678;11.910;2023-02-01T01:41:24;24.60;;;3.38;;
49962;SDS011;36180;57.678;11.910;2023-02-01T01:43:55;31.58;;;4.10;;
49962;SDS011;36180;57.678;11.910;2023-02-01T01:46:25;26.90;;;3.78;;
49962;SDS011;36180;57.678;11.910;2023-02-01T01:49:00;25.48;;;3.67;;
49962;SDS011;36180;57.678;11.910;2023-02-01T01:51:31;23.17;;;3.97;;
49962;SDS011;36180;57.678;11.910;2023-02-01T01:54:03;19.52;;;2.92;;
49962;SDS011;36180;57.678;11.910;2023-02-01T01:56:34;24.13;;;3.78;;
49962;SDS011;36180;57.678;11.910;2023-02-01T01:59:02;28.65;;;3.78;;
49962;SDS011;36180;57.678;11.910;2023-02-01T02:01:31;27.75;;;3.40;;
49962;SDS011;36180;57.678;11.910;2023-02-01T02:03:58;25.52;;;2.85;;
49962;SDS011;36180;57.678;11.910;2023-02-01T02:06:32;24.55;;;3.65;;
49962;SDS011;36180;57.678;11.910;2023-02-01T02:09:03;25.63;;;3.40;;
49962;SDS011;36180;57.678;11.910;2023-02-01T02:11:30;25.55;;;3.88;;
49962;SDS011;36180;57.678;11.910;2023-02-01T02:13:57;31.55;;;4.10;;
49962;SDS011;36180;57.678;11.910;2023-02-01T02:16:35;26.42;;;3.53;;
49962;SDS011;36180;57.678;11.910;2023-02-01T02:28:55;30.50;;;4.13;;
49962;SDS011;36180;57.678;11.910;2023-02-01T02:31:54;33.25;;;4.45;;
49962;SDS011;36180;57.678;11.910;2023-02-01T02:34:31;34.05;;;4.45;;
49962;SDS011;36180;57.678;11.910;2023-02-01T02:37:03;40.42;;;4.90;;
49962;SDS011;36180;57.678;11.910;2023-02-01T02:39:36;29.23;;;4.75;;
49962;SDS011;36180;57.678;11.910;2023-02-01T02:42:09;27.83;;;5.40;;
49962;SDS011;36180;57.678;11.910;2023-02-01T02:44:58;31.23;;;4.32;;
49962;SDS011;36180;57.678;11.910;2023-02-01T02:47:47;25.42;;;4.63;;
49962;SDS011;36180;57.678;11.910;2023-02-01T02:50:20;28.70;;;4.45;;
49962;SDS011;36180;57.678;11.910;2023-02-01T02:53:09;32.47;;;4.68;;
49962;SDS011;36180;57.678;11.910;2023-02-01T02:55:56;24.88;;;4.22;;
49962;SDS011;36180;57.678;11.910;2023-02-01T02:58:41;25.95;;;4.40;;
49962;SDS011;36180;57.678;11.910;2023-02-01T03:01:27;27.33;;;3.88;;
49962;SDS011;36180;57.678;11.910;2023-02-01T03:04:12;22.20;;;3.33;;
49962;SDS011;36180;57.678;11.910;2023-02-01T03:06:45;23.55;;;3.45;;
49962;SDS011;36180;57.678;11.910;2023-02-01T03:09:13;33.25;;;4.88;;
49962;SDS011;36180;57.678;11.910;2023-02-01T03:11:44;23.48;;;4.85;;
49962;SDS011;36180;57.678;11.910;2023-02-01T03:14:37;39.28;;;5.45;;
49962;SDS011;36180;57.678;11.910;2023-02-01T03:17:10;42.40;;;4.25;;
49962;SDS011;36180;57.678;11.910;2023-02-01T03:19:40;36.75;;;4.85;;
49962;SDS011;36180;57.678;11.910;2023-02-01T03:22:16;40.80;;;4.85;;
49962;SDS011;36180;57.678;11.910;2023-02-01T03:24:47;35.10;;;4.90;;
49962;SDS011;36180;57.678;11.910;2023-02-01T03:27:17;33.90;;;5.13;;
49962;SDS011;36180;57.678;11.910;2023-02-01T03:29:48;39.28;;;7.10;;
49962;SDS011;36180;57.678;11.910;2023-02-01T03:32:18;47.17;;;6.57;;
49962;SDS011;36180;57.678;11.910;2023-02-01T03:34:46;41.70;;;6.63;;
49962;SDS011;36180;57.678;11.910;2023-02-01T03:37:18;46.88;;;6.20;;
49962;SDS011;36180;57.678;11.910;2023-02-01T03:39:50;32.47;;;5.47;;
49962;SDS011;36180;57.678;11.910;2023-02-01T03:42:21;34.63;;;5.72;;
49962;SDS011;36180;57.678;11.910;2023-02-01T03:44:53;34.90;;;5.45;;
49962;SDS011;36180;57.678;11.910;2023-02-01T03:47:25;28.52;;;4.55;;
49962;SDS011;36180;57.678;11.910;2023-02-01T03:49:55;29.90;;;5.07;;
49962;SDS011;36180;57.678;11.910;2023-02-01T03:52:28;31.70;;;4.88;;
49962;SDS011;36180;57.678;11.910;2023-02-01T03:57:25;35.15;;;4.47;;
49962;SDS011;36180;57.678;11.910;2023-02-01T03:59:54;28.30;;;4.47;;
49962;SDS011;36180;57.678;11.910;2023-02-01T04:02:39;38.47;;;6.07;;
49962;SDS011;36180;57.678;11.910;2023-02-01T04:05:06;38.15;;;6.55;;
49962;SDS011;36180;57.678;11.910;2023-02-01T04:07:36;42.55;;;6.05;;
49962;SDS011;36180;57.678;11.910;2023-02-01T04:10:04;34.70;;;5.53;;
49962;SDS011;36180;57.678;11.910;2023-02-01T04:12:31;38.20;;;5.72;;
49962;SDS011;36180;57.678;11.910;2023-02-01T04:14:59;26.63;;;4.63;;
49962;SDS011;36180;57.678;11.910;2023-02-01T04:17:26;30.58;;;5.38;;
49962;SDS011;36180;57.678;11.910;2023-02-01T04:19:53;37.25;;;5.72;;
49962;SDS011;36180;57.678;11.910;2023-02-01T04:22:20;34.75;;;5.85;;
49962;SDS011;36180;57.678;11.910;2023-02-01T04:24:48;38.92;;;5.72;;
49962;SDS011;36180;57.678;11.910;2023-02-01T04:27:15;38.30;;;5.40;;
49962;SDS011;36180;57.678;11.910;2023-02-01T04:29:43;38.95;;;5.30;;
49962;SDS011;36180;57.678;11.910;2023-02-01T04:32:10;40.05;;;5.82;;
49962;SDS011;36180;57.678;11.910;2023-02-01T04:34:37;35.95;;;5.97;;
49962;SDS011;36180;57.678;11.910;2023-02-01T04:37:04;44.47;;;6.45;;
49962;SDS011;36180;57.678;11.910;2023-02-01T04:39:32;33.88;;;4.70;;
49962;SDS011;36180;57.678;11.910;2023-02-01T04:42:00;42.05;;;5.68;;
49962;SDS011;36180;57.678;11.910;2023-02-01T04:44:27;39.40;;;6.57;;
49962;SDS011;36180;57.678;11.910;2023-02-01T04:46:55;42.92;;;5.68;;
49962;SDS011;36180;57.678;11.910;2023-02-01T04:49:22;42.90;;;6.38;;
49962;SDS011;36180;57.678;11.910;2023-02-01T04:51:50;38.33;;;5.85;;
49962;SDS011;36180;57.678;11.910;2023-02-01T04:54:17;54.45;;;6.38;;
49962;SDS011;36180;57.678;11.910;2023-02-01T04:56:44;37.05;;;5.45;;
49962;SDS011;36180;57.678;11.910;2023-02-01T04:59:13;44.17;;;6.07;;
49962;SDS011;36180;57.678;11.910;2023-02-01T05:01:40;38.97;;;5.53;;
49962;SDS011;36180;57.678;11.910;2023-02-01T05:04:07;45.88;;;5.40;;
49962;SDS011;36180;57.678;11.910;2023-02-01T05:06:34;38.60;;;5.63;;
49962;SDS011;36180;57.678;11.910;2023-02-01T05:09:01;35.97;;;5.80;;
49962;SDS011;36180;57.678;11.910;2023-02-01T05:11:28;44.47;;;6.05;;
49962;SDS011;36180;57.678;11.910;2023-02-01T05:14:14;36.95;;;5.93;;
49962;SDS011;36180;57.678;11.910;2023-02-01T05:16:41;38.08;;;5.53;;
49962;SDS011;36180;57.678;11.910;2023-02-01T05:19:08;35.38;;;5.32;;
49962;SDS011;36180;57.678;11.910;2023-02-01T05:21:35;36.75;;;4.53;;
49962;SDS011;36180;57.678;11.910;2023-02-01T05:24:03;29.75;;;4.55;;
49962;SDS011;36180;57.678;11.910;2023-02-01T05:26:38;39.63;;;6.13;;
49962;SDS011;36180;57.678;11.910;2023-02-01T05:29:06;26.85;;;5.20;;
49962;SDS011;36180;57.678;11.910;2023-02-01T05:31:34;39.88;;;5.15;;
49962;SDS011;36180;57.678;11.910;2023-02-01T05:34:02;38.95;;;5.13;;
49962;SDS011;36180;57.678;11.910;2023-02-01T05:36:29;33.42;;;5.15;;
49962;SDS011;36180;57.678;11.910;2023-02-01T05:38:56;35.53;;;5.35;;
49962;SDS011;36180;57.678;11.910;2023-02-01T05:41:24;34.13;;;5.68;;
49962;SDS011;36180;57.678;11.910;2023-02-01T05:43:51;33.22;;;4.95;;
49962;SDS011;36180;57.678;11.910;2023-02-01T05:46:18;43.45;;;4.82;;
49962;SDS011;36180;57.678;11.910;2023-02-01T05:48:46;33.80;;;5.50;;
49962;SDS011;36180;57.678;11.910;2023-02-01T05:51:13;31.42;;;4.35;;
49962;SDS011;36180;57.678;11.910;2023-02-01T05:53:40;41.05;;;4.95;;
49962;SDS011;36180;57.678;11.910;2023-02-01T05:56:08;34.88;;;4.95;;
49962;SDS011;36180;57.678;11.910;2023-02-01T05:58:35;33.88;;;5.43;;
49962;SDS011;36180;57.678;11.910;2023-02-01T06:01:02;29.52;;;5.00;;
49962;SDS011;36180;57.678;11.910;2023-02-01T06:03:29;23.80;;;4.03;;
49962;SDS011;36180;57.678;11.910;2023-02-01T06:05:58;32.10;;;5.03;;
49962;SDS011;36180;57.678;11.910;2023-02-01T06:08:26;32.25;;;4.40;;
49962;SDS011;36180;57.678;11.910;2023-02-01T06:10:57;38.15;;;5.50;;
49962;SDS011;36180;57.678;11.910;2023-02-01T06:13:24;45.55;;;6.43;;
49962;SDS011;36180;57.678;11.910;2023-02-01T06:15:51;36.25;;;5.75;;
49962;SDS011;36180;57.678;11.910;2023-02-01T06:18:18;35.35;;;5.20;;
49962;SDS011;36180;57.678;11.910;2023-02-01T06:20:51;48.50;;;6.13;;
49962;SDS011;36180;57.678;11.910;2023-02-01T06:23:20;43.17;;;6.50;;
49962;SDS011;36180;57.678;11.910;2023-02-01T06:25:50;40.08;;;5.70;;
49962;SDS011;36180;57.678;11.910;2023-02-01T06:28:17;43.35;;;5.93;;
49962;SDS011;36180;57.678;11.910;2023-02-01T06:30:44;41.45;;;6.68;;
49962;SDS011;36180;57.678;11.910;2023-02-01T06:33:13;38.75;;;6.13;;
49962;SDS011;36180;57.678;11.910;2023-02-01T06:35:41;40.03;;;5.90;;
49962;SDS011;36180;57.678;11.910;2023-02-01T06:38:09;45.65;;;6.85;;
49962;SDS011;36180;57.678;11.910;2023-02-01T06:40:38;32.97;;;5.15;;
49962;SDS011;36180;57.678;11.910;2023-02-01T06:43:05;33.83;;;4.80;;
49962;SDS011;36180;57.678;11.910;2023-02-01T06:45:32;32.67;;;4.82;;
49962;SDS011;36180;57.678;11.910;2023-02-01T06:47:59;32.78;;;4.35;;
49962;SDS011;36180;57.678;11.910;2023-02-01T06:50:26;29.48;;;4.55;;
49962;SDS011;36180;57.678;11.910;2023-02-01T06:52:53;25.52;;;3.92;;
49962;SDS011;36180;57.678;11.910;2023-02-01T06:55:21;25.50;;;4.45;;
49962;SDS011;36180;57.678;11.910;2023-02-01T06:57:49;34.10;;;5.28;;
49962;SDS011;36180;57.678;11.910;2023-02-01T07:00:20;33.27;;;5.57;;
49962;SDS011;36180;57.678;11.910;2023-02-01T07:02:47;28.75;;;4.78;;
49962;SDS011;36180;57.678;11.910;2023-02-01T07:05:15;34.78;;;5.47;;
49962;SDS011;36180;57.678;11.910;2023-02-01T07:07:42;29.10;;;5.43;;
49962;SDS011;36180;57.678;11.910;2023-02-01T07:10:09;34.85;;;4.43;;
49962;SDS011;36180;57.678;11.910;2023-02-01T07:12:37;40.50;;;5.10;;
49962;SDS011;36180;57.678;11.910;2023-02-01T07:15:06;35.70;;;5.07;;
49962;SDS011;36180;57.678;11.910;2023-02-01T07:17:33;36.35;;;4.68;;
49962;SDS011;36180;57.678;11.910;2023-02-01T07:20:01;31.08;;;4.32;;
49962;SDS011;36180;57.678;11.910;2023-02-01T07:22:28;23.38;;;4.05;;
49962;SDS011;36180;57.678;11.910;2023-02-01T07:24:55;18.60;;;3.97;;
49962;SDS011;36180;57.678;11.910;2023-02-01T07:27:22;24.25;;;3.35;;
49962;SDS011;36180;57.678;11.910;2023-02-01T07:29:50;15.23;;;3.38;;
49962;SDS011;36180;57.678;11.910;2023-02-01T07:32:19;22.90;;;3.75;;
49962;SDS011;36180;57.678;11.910;2023-02-01T07:34:46;27.80;;;4.30;;
49962;SDS011;36180;57.678;11.910;2023-02-01T07:37:13;22.92;;;3.95;;
49962;SDS011;36180;57.678;11.910;2023-02-01T07:39:40;18.75;;;3.63;;
49962;SDS011;36180;57.678;11.910;2023-02-01T07:42:07;23.02;;;4.18;;
49962;SDS011;36180;57.678;11.910;2023-02-01T07:44:34;28.20;;;3.20;;
49962;SDS011;36180;57.678;11.910;2023-02-01T07:47:01;22.13;;;2.97;;
49962;SDS011;36180;57.678;11.910;2023-02-01T07:49:30;17.88;;;2.47;;
49962;SDS011;36180;57.678;11.910;2023-02-01T07:51:57;24.52;;;3.00;;
49962;SDS011;36180;57.678;11.910;2023-02-01T07:54:24;25.60;;;4.22;;
49962;SDS011;36180;57.678;11.910;2023-02-01T07:56:52;20.08;;;3.15;;
49962;SDS011;36180;57.678;11.910;2023-02-01T07:59:19;27.40;;;3.47;;
49962;SDS011;36180;57.678;11.910;2023-02-01T08:01:46;29.15;;;4.15;;
49962;SDS011;36180;57.678;11.910;2023-02-01T08:04:12;22.15;;;2.97;;
49962;SDS011;36180;57.678;11.910;2023-02-01T08:06:41;23.02;;;3.47;;
49962;SDS011;36180;57.678;11.910;2023-02-01T08:09:08;28.13;;;3.75;;
49962;SDS011;36180;57.678;11.910;2023-02-01T08:11:36;22.42;;;3.72;;
49962;SDS011;36180;57.678;11.910;2023-02-01T08:14:03;20.75;;;3.75;;
49962;SDS011;36180;57.678;11.910;2023-02-01T08:16:31;27.30;;;4.40;;
49962;SDS011;36180;57.678;11.910;2023-02-01T08:19:00;21.85;;;3.47;;
49962;SDS011;36180;57.678;11.910;2023-02-01T08:21:28;23.75;;;3.13;;
49962;SDS011;36180;57.678;11.910;2023-02-01T08:24:03;22.73;;;3.30;;
49962;SDS011;36180;57.678;11.910;2023-02-01T08:26:31;34.53;;;4.65;;
49962;SDS011;36180;57.678;11.910;2023-02-01T08:28:59;30.65;;;4.57;;
49962;SDS011;36180;57.678;11.910;2023-02-01T08:31:28;29.83;;;4.50;;
49962;SDS011;36180;57.678;11.910;2023-02-01T08:33:56;23.00;;;3.58;;
49962;SDS011;36180;57.678;11.910;2023-02-01T08:36:25;31.02;;;4.60;;
49962;SDS011;36180;57.678;11.910;2023-02-01T08:38:53;25.60;;;3.88;;
49962;SDS011;36180;57.678;11.910;2023-02-01T08:41:22;27.95;;;4.93;;
49962;SDS011;36180;57.678;11.910;2023-02-01T08:43:51;27.83;;;3.97;;
49962;SDS011;36180;57.678;11.910;2023-02-01T08:46:19;29.17;;;3.63;;
49962;SDS011;36180;57.678;11.910;2023-02-01T08:48:47;25.98;;;3.50;;
49962;SDS011;36180;57.678;11.910;2023-02-01T08:51:15;27.70;;;4.32;;
49962;SDS011;36180;57.678;11.910;2023-02-01T08:53:43;27.92;;;4.65;;
49962;SDS011;36180;57.678;11.910;2023-02-01T08:56:12;28.55;;;4.47;;
49962;SDS011;36180;57.678;11.910;2023-02-01T08:58:41;36.20;;;5.20;;
49962;SDS011;36180;57.678;11.910;2023-02-01T09:01:09;36.20;;;4.82;;
49962;SDS011;36180;57.678;11.910;2023-02-01T09:03:38;32.90;;;4.63;;
49962;SDS011;36180;57.678;11.910;2023-02-01T09:06:07;27.48;;;4.38;;
49962;SDS011;36180;57.678;11.910;2023-02-01T09:08:35;35.70;;;5.10;;
49962;SDS011;36180;57.678;11.910;2023-02-01T09:11:04;39.60;;;4.85;;
49962;SDS011;36180;57.678;11.910;2023-02-01T09:13:32;38.25;;;5.30;;
49962;SDS011;36180;57.678;11.910;2023-02-01T09:16:02;36.05;;;5.05;;
49962;SDS011;36180;57.678;11.910;2023-02-01T09:18:29;40.22;;;5.18;;
49962;SDS011;36180;57.678;11.910;2023-02-01T09:20:56;41.20;;;5.10;;
49962;SDS011;36180;57.678;11.910;2023-02-01T09:23:23;27.67;;;4.68;;
49962;SDS011;36180;57.678;11.910;2023-02-01T09:25:50;37.95;;;5.40;;
49962;SDS011;36180;57.678;11.910;2023-02-01T09:28:18;35.83;;;5.20;;
49962;SDS011;36180;57.678;11.910;2023-02-01T09:30:45;32.17;;;5.10;;
49962;SDS011;36180;57.678;11.910;2023-02-01T09:33:14;29.80;;;4.93;;
49962;SDS011;36180;57.678;11.910;2023-02-01T09:35:42;28.88;;;5.00;;
49962;SDS011;36180;57.678;11.910;2023-02-01T09:38:09;29.08;;;4.30;;
49962;SDS011;36180;57.678;11.910;2023-02-01T09:40:46;33.78;;;4.93;;
49962;SDS011;36180;57.678;11.910;2023-02-01T09:43:17;41.00;;;5.57;;
49962;SDS011;36180;57.678;11.910;2023-02-01T09:45:51;42.85;;;4.97;;
49962;SDS011;36180;57.678;11.910;2023-02-01T09:48:24;38.13;;;5.88;;
49962;SDS011;36180;57.678;11.910;2023-02-01T09:50:55;44.10;;;5.95;;
49962;SDS011;36180;57.678;11.910;2023-02-01T09:53:25;38.75;;;5.10;;
49962;SDS011;36180;57.678;11.910;2023-02-01T09:55:55;41.03;;;5.18;;
49962;SDS011;36180;57.678;11.910;2023-02-01T09:58:27;39.75;;;5.38;;
49962;SDS011;36180;57.678;11.910;2023-02-01T10:00:59;34.67;;;4.78;;
49962;SDS011;36180;57.678;11.910;2023-02-01T10:03:30;32.95;;;5.40;;
49962;SDS011;36180;57.678;11.910;2023-02-01T10:06:12;38.88;;;5.32;;
49962;SDS011;36180;57.678;11.910;2023-02-01T10:09:03;45.03;;;5.70;;
49962;SDS011;36180;57.678;11.910;2023-02-01T10:11:39;49.80;;;5.45;;
49962;SDS011;36180;57.678;11.910;2023-02-01T10:14:17;38.33;;;5.47;;
49962;SDS011;36180;57.678;11.910;2023-02-01T10:16:55;35.90;;;6.20;;
49962;SDS011;36180;57.678;11.910;2023-02-01T10:19:32;41.05;;;6.35;;
49962;SDS011;36180;57.678;11.910;2023-02-01T10:22:05;36.90;;;4.70;;
49962;SDS011;36180;57.678;11.910;2023-02-01T10:24:36;30.33;;;4.10;;
49962;SDS011;36180;57.678;11.910;2023-02-01T10:27:17;37.65;;;4.50;;
49962;SDS011;36180;57.678;11.910;2023-02-01T10:29:47;35.28;;;5.13;;
49962;SDS011;36180;57.678;11.910;2023-02-01T10:34:49;37.38;;;4.30;;
49962;SDS011;36180;57.678;11.910;2023-02-01T10:37:23;30.80;;;4.38;;
49962;SDS011;36180;57.678;11.910;2023-02-01T10:39:54;38.60;;;6.03;;
49962;SDS011;36180;57.678;11.910;2023-02-01T10:42:24;38.65;;;6.45;;
49962;SDS011;36180;57.678;11.910;2023-02-01T10:44:53;41.97;;;5.65;;
49962;SDS011;36180;57.678;11.910;2023-02-01T10:47:22;38.80;;;6.18;;
49962;SDS011;36180;57.678;11.910;2023-02-01T10:49:52;44.35;;;5.65;;
49962;SDS011;36180;57.678;11.910;2023-02-01T10:52:25;36.78;;;5.28;;
49962;SDS011;36180;57.678;11.910;2023-02-01T10:54:58;39.33;;;5.60;;
49962;SDS011;36180;57.678;11.910;2023-02-01T10:57:55;45.63;;;5.60;;
49962;SDS011;36180;57.678;11.910;2023-02-01T11:00:23;34.53;;;6.20;;
49962;SDS011;36180;57.678;11.910;2023-02-01T11:02:50;35.00;;;6.10;;
49962;SDS011;36180;57.678;11.910;2023-02-01T11:05:19;40.15;;;5.40;;
49962;SDS011;36180;57.678;11.910;2023-02-01T11:07:48;40.67;;;5.75;;
49962;SDS011;36180;57.678;11.910;2023-02-01T11:13:03;44.10;;;6.63;;
49962;SDS011;36180;57.678;11.910;2023-02-01T11:15:30;43.35;;;6.00;;
49962;SDS011;36180;57.678;11.910;2023-02-01T11:17:57;55.45;;;6.60;;
49962;SDS011;36180;57.678;11.910;2023-02-01T11:20:42;45.53;;;7.47;;
49962;SDS011;36180;57.678;11.910;2023-02-01T11:23:13;51.40;;;7.60;;
49962;SDS011;36180;57.678;11.910;2023-02-01T11:25:47;39.73;;;6.67;;
49962;SDS011;36180;57.678;11.910;2023-02-01T11:28:15;56.45;;;7.85;;
49962;SDS011;36180;57.678;11.910;2023-02-01T11:30:43;47.72;;;7.10;;
49962;SDS011;36180;57.678;11.910;2023-02-01T11:33:12;43.05;;;7.15;;
49962;SDS011;36180;57.678;11.910;2023-02-01T11:35:43;32.10;;;5.18;;
49962;SDS011;36180;57.678;11.910;2023-02-01T11:38:12;40.13;;;5.85;;
49962;SDS011;36180;57.678;11.910;2023-02-01T11:40:45;34.75;;;5.35;;
49962;SDS011;36180;57.678;11.910;2023-02-01T11:43:14;33.85;;;5.15;;
49962;SDS011;36180;57.678;11.910;2023-02-01T11:45:53;35.08;;;5.15;;
49962;SDS011;36180;57.678;11.910;2023-02-01T11:48:20;29.63;;;5.03;;
49962;SDS011;36180;57.678;11.910;2023-02-01T11:50:53;31.10;;;5.63;;
49962;SDS011;36180;57.678;11.910;2023-02-01T11:53:31;31.85;;;4.85;;
49962;SDS011;36180;57.678;11.910;2023-02-01T11:56:09;33.38;;;5.75;;
49962;SDS011;36180;57.678;11.910;2023-02-01T11:58:49;31.58;;;5.00;;
49962;SDS011;36180;57.678;11.910;2023-02-01T12:01:43;35.45;;;5.25;;
49962;SDS011;36180;57.678;11.910;2023-02-01T12:07:20;37.50;;;5.32;;
49962;SDS011;36180;57.678;11.910;2023-02-01T12:09:53;48.03;;;6.40;;
49962;SDS011;36180;57.678;11.910;2023-02-01T12:12:32;36.08;;;4.72;;
49962;SDS011;36180;57.678;11.910;2023-02-01T12:15:17;27.10;;;4.45;;
49962;SDS011;36180;57.678;11.910;2023-02-01T12:18:08;30.40;;;4.95;;
49962;SDS011;36180;57.678;11.910;2023-02-01T12:20:47;29.35;;;4.22;;
49962;SDS011;36180;57.678;11.910;2023-02-01T12:23:30;28.23;;;3.60;;
49962;SDS011;36180;57.678;11.910;2023-02-01T12:26:07;38.42;;;4.03;;
49962;SDS011;36180;57.678;11.910;2023-02-01T12:28:52;32.03;;;4.30;;
49962;SDS011;36180;57.678;11.910;2023-02-01T12:31:34;30.13;;;3.70;;
49962;SDS011;36180;57.678;11.910;2023-02-01T12:34:14;24.05;;;4.70;;
49962;SDS011;36180;57.678;11.910;2023-02-01T12:36:53;31.50;;;5.05;;
49962;SDS011;36180;57.678;11.910;2023-02-01T12:39:30;36.35;;;4.53;;
49962;SDS011;36180;57.678;11.910;2023-02-01T12:44:29;37.83;;;4.72;;
49962;SDS011;36180;57.678;11.910;2023-02-01T12:47:12;42.97;;;4.60;;
49962;SDS011;36180;57.678;11.910;2023-02-01T12:49:45;31.40;;;4.78;;
49962;SDS011;36180;57.678;11.910;2023-02-01T12:52:16;29.10;;;4.67;;
49962;SDS011;36180;57.678;11.910;2023-02-01T12:54:48;40.57;;;7.00;;
49962;SDS011;36180;57.678;11.910;2023-02-01T12:57:23;39.05;;;4.75;;
49962;SDS011;36180;57.678;11.910;2023-02-01T12:59:53;42.05;;;5.82;;
49962;SDS011;36180;57.678;11.910;2023-02-01T13:02:27;46.33;;;6.90;;
49962;SDS011;36180;57.678;11.910;2023-02-01T13:05:02;41.05;;;5.25;;
49962;SDS011;36180;57.678;11.910;2023-02-01T13:07:39;42.33;;;7.18;;
49962;SDS011;36180;57.678;11.910;2023-02-01T13:10:12;41.20;;;6.25;;
49962;SDS011;36180;57.678;11.910;2023-02-01T13:12:43;49.47;;;6.03;;
49962;SDS011;36180;57.678;11.910;2023-02-01T13:15:16;46.25;;;5.90;;
49962;SDS011;36180;57.678;11.910;2023-02-01T13:17:46;47.42;;;6.22;;
49962;SDS011;36180;57.678;11.910;2023-02-01T13:20:16;50.75;;;7.20;;
49962;SDS011;36180;57.678;11.910;2023-02-01T13:23:03;51.33;;;6.72;;
49962;SDS011;36180;57.678;11.910;2023-02-01T13:25:35;43.60;;;6.18;;
49962;SDS011;36180;57.678;11.910;2023-02-01T13:28:05;41.63;;;5.80;;
49962;SDS011;36180;57.678;11.910;2023-02-01T13:30:39;49.92;;;7.22;;
49962;SDS011;36180;57.678;11.910;2023-02-01T13:33:26;47.28;;;6.07;;
49962;SDS011;36180;57.678;11.910;2023-02-01T13:36:15;52.00;;;6.75;;
49962;SDS011;36180;57.678;11.910;2023-02-01T13:41:54;38.97;;;6.70;;
49962;SDS011;36180;57.678;11.910;2023-02-01T13:44:26;50.80;;;6.40;;
49962;SDS011;36180;57.678;11.910;2023-02-01T13:46:56;41.22;;;6.07;;
49962;SDS011;36180;57.678;11.910;2023-02-01T13:49:26;34.78;;;5.50;;
49962;SDS011;36180;57.678;11.910;2023-02-01T13:51:55;51.15;;;6.38;;
49962;SDS011;36180;57.678;11.910;2023-02-01T13:54:27;56.83;;;6.97;;
49962;SDS011;36180;57.678;11.910;2023-02-01T13:56:57;43.78;;;6.88;;
49962;SDS011;36180;57.678;11.910;2023-02-01T14:02:47;42.28;;;5.97;;
49962;SDS011;36180;57.678;11.910;2023-02-01T14:08:22;39.50;;;6.55;;
49962;SDS011;36180;57.678;11.910;2023-02-01T14:11:01;34.65;;;5.30;;
49962;SDS011;36180;57.678;11.910;2023-02-01T14:13:31;49.28;;;6.45;;
49962;SDS011;36180;57.678;11.910;2023-02-01T14:16:12;41.80;;;6.13;;
49962;SDS011;36180;57.678;11.910;2023-02-01T14:21:27;45.78;;;6.22;;
49962;SDS011;36180;57.678;11.910;2023-02-01T14:23:56;45.30;;;6.07;;
49962;SDS011;36180;57.678;11.910;2023-02-01T14:26:25;48.85;;;6.38;;
49962;SDS011;36180;57.678;11.910;2023-02-01T14:29:03;43.13;;;5.93;;
49962;SDS011;36180;57.678;11.910;2023-02-01T14:31:59;30.98;;;5.18;;
49962;SDS011;36180;57.678;11.910;2023-02-01T14:34:33;34.30;;;4.60;;
49962;SDS011;36180;57.678;11.910;2023-02-01T14:37:08;27.02;;;4.18;;
49962;SDS011;36180;57.678;11.910;2023-02-01T14:39:38;24.92;;;3.50;;
49962;SDS011;36180;57.678;11.910;2023-02-01T14:42:20;27.95;;;3.38;;
49962;SDS011;36180;57.678;11.910;2023-02-01T14:44:51;22.63;;;3.33;;
49962;SDS011;36180;57.678;11.910;2023-02-01T14:47:28;14.38;;;2.95;;
49962;SDS011;36180;57.678;11.910;2023-02-01T14:50:03;23.33;;;3.47;;
49962;SDS011;36180;57.678;11.910;2023-02-01T14:52:39;15.65;;;2.97;;
49962;SDS011;36180;57.678;11.910;2023-02-01T14:55:10;25.80;;;3.47;;
49962;SDS011;36180;57.678;11.910;2023-02-01T14:57:39;16.17;;;2.60;;
49962;SDS011;36180;57.678;11.910;2023-02-01T15:00:21;17.15;;;2.40;;
49962;SDS011;36180;57.678;11.910;2023-02-01T15:02:50;13.35;;;2.35;;
49962;SDS011;36180;57.678;11.910;2023-02-01T15:05:26;17.42;;;2.30;;
49962;SDS011;36180;57.678;11.910;2023-02-01T15:08:06;14.55;;;1.65;;
49962;SDS011;36180;57.678;11.910;2023-02-01T15:10:43;11.77;;;1.60;;
49962;SDS011;36180;57.678;11.910;2023-02-01T15:13:17;6.55;;;1.60;;
49962;SDS011;36180;57.678;11.910;2023-02-01T15:16:00;8.32;;;1.10;;
49962;SDS011;36180;57.678;11.910;2023-02-01T15:18:28;10.90;;;1.45;;